createdAt,value
2022-08-24T00:00:24.689Z,81.70
2022-08-24T00:02:57.207Z,83.80
2022-08-24T00:05:29.600Z,83.60
2022-08-24T00:08:02.682Z,84.60
2022-08-24T00:10:34.861Z,84.00
2022-08-24T00:13:07.295Z,83.00
2022-08-24T00:15:41.110Z,82.20
2022-08-24T00:18:14.117Z,82.20
2022-08-24T00:20:46.654Z,82.80
2022-08-24T00:23:19.302Z,82.20
2022-08-24T00:25:51.985Z,83.20
2022-08-24T00:28:24.144Z,83.40
2022-08-24T00:30:56.437Z,83.60
2022-08-24T00:33:28.417Z,84.70
2022-08-24T00:36:01.659Z,84.60
2022-08-24T00:38:35.792Z,83.70
2022-08-24T00:41:08.391Z,84.70
2022-08-24T00:43:50.562Z,83.40
2022-08-24T00:46:43.325Z,84.10
2022-08-24T00:49:49.017Z,83.40
2022-08-24T00:52:41.406Z,83.40
2022-08-24T00:55:26.851Z,84.10
2022-08-24T00:58:46.127Z,85.40
2022-08-24T01:01:29.377Z,85.90
2022-08-24T01:04:03.063Z,84.40
2022-08-24T01:06:37.387Z,84.90
2022-08-24T01:09:09.555Z,84.20
2022-08-24T01:11:42.667Z,84.80
2022-08-24T01:14:17.262Z,84.70
2022-08-24T01:17:09.313Z,85.50
2022-08-24T01:20:03.829Z,85.60
2022-08-24T01:22:57.134Z,86.30
2022-08-24T01:25:48.960Z,86.00
2022-08-24T01:28:27.203Z,85.80
2022-08-24T01:31:00.534Z,88.90
2022-08-24T01:33:33.476Z,88.50
2022-08-24T01:36:28.872Z,87.30
2022-08-24T01:39:30.084Z,87.40
2022-08-24T01:42:05.810Z,90.20
2022-08-24T01:44:39.438Z,91.00
2022-08-24T01:47:15.319Z,91.50
2022-08-24T01:49:48.976Z,90.90
2022-08-24T01:52:26.814Z,91.30
2022-08-24T01:55:07.679Z,91.40
2022-08-24T01:57:43.758Z,91.50
2022-08-24T02:00:16.223Z,91.70
2022-08-24T02:02:48.690Z,91.30
2022-08-24T02:05:20.771Z,92.70
2022-08-24T02:07:53.673Z,92.40
2022-08-24T02:10:48.672Z,91.80
2022-08-24T02:13:28.770Z,92.40
2022-08-24T02:16:01.751Z,93.10
2022-08-24T02:18:35.479Z,93.70
2022-08-24T02:21:09.820Z,93.60
2022-08-24T02:23:43.035Z,93.00
2022-08-24T02:26:15.177Z,94.50
2022-08-24T02:28:47.686Z,94.20
2022-08-24T02:31:19.750Z,94.00
2022-08-24T02:33:51.890Z,94.10
2022-08-24T02:36:26.005Z,94.70
2022-08-24T02:38:59.343Z,96.00
2022-08-24T02:41:32.171Z,96.90
2022-08-24T02:44:06.541Z,97.90
2022-08-24T02:46:38.777Z,99.30
2022-08-24T02:49:12.325Z,99.50
2022-08-24T02:51:46.328Z,99.30
2022-08-24T02:54:19.874Z,99.90
2022-08-24T02:56:52.244Z,99.90
2022-08-24T02:59:25.498Z,99.90
2022-08-24T03:01:57.814Z,99.90
2022-08-24T03:04:29.863Z,99.90
2022-08-24T03:07:02.462Z,99.90
2022-08-24T03:09:34.654Z,99.90
2022-08-24T03:12:06.893Z,99.90
2022-08-24T03:14:39.196Z,99.90
2022-08-24T03:17:12.706Z,99.90
2022-08-24T03:19:44.714Z,99.90
2022-08-24T03:22:17.419Z,99.90
2022-08-24T03:24:50.716Z,99.90
2022-08-24T03:27:23.224Z,99.90
2022-08-24T03:29:55.604Z,99.90
2022-08-24T03:32:28.082Z,99.90
2022-08-24T03:35:00.148Z,99.90
2022-08-24T03:37:33.193Z,99.90
2022-08-24T03:40:07.651Z,99.90
2022-08-24T03:42:55.308Z,99.90
2022-08-24T03:45:28.310Z,99.90
2022-08-24T03:48:00.378Z,99.90
2022-08-24T03:50:32.541Z,99.90
2022-08-24T03:53:04.600Z,99.90
2022-08-24T03:55:36.744Z,99.90
2022-08-24T03:58:08.673Z,99.90
2022-08-24T04:00:42.802Z,99.90
2022-08-24T04:03:16.289Z,99.90
2022-08-24T04:05:48.369Z,99.90
2022-08-24T04:08:21.085Z,99.90
2022-08-24T04:10:55.854Z,99.90
2022-08-24T04:13:31.901Z,99.90
2022-08-24T04:16:12.919Z,99.90
2022-08-24T04:18:47.696Z,99.90
2022-08-24T04:21:25.094Z,99.90
2022-08-24T04:24:01.957Z,99.90
2022-08-24T04:26:44.843Z,99.90
2022-08-24T04:29:20.407Z,99.90
2022-08-24T04:31:53.498Z,99.90
2022-08-24T04:34:25.593Z,99.90
2022-08-24T04:36:57.814Z,99.90
2022-08-24T04:39:29.802Z,99.90
2022-08-24T04:42:03.697Z,99.90
2022-08-24T04:44:37.136Z,99.90
2022-08-24T04:47:09.480Z,99.90
2022-08-24T04:49:41.596Z,99.90
2022-08-24T04:52:13.777Z,99.90
2022-08-24T04:54:45.861Z,99.90
2022-08-24T04:57:18.568Z,99.90
2022-08-24T04:59:50.805Z,99.90
2022-08-24T05:02:27.414Z,99.90
2022-08-24T05:04:59.733Z,99.90
2022-08-24T05:07:31.914Z,99.90
2022-08-24T05:10:07.477Z,99.90
2022-08-24T05:12:42.813Z,99.90
2022-08-24T05:15:16.379Z,99.90
2022-08-24T05:17:48.667Z,99.90
2022-08-24T05:20:23.531Z,99.90
2022-08-24T05:22:58.138Z,99.90
2022-08-24T05:25:32.547Z,99.90
2022-08-24T05:28:05.282Z,99.90
2022-08-24T05:30:42.354Z,99.90
2022-08-24T05:33:14.891Z,99.90
2022-08-24T05:35:47.546Z,99.90
2022-08-24T05:38:20.007Z,99.90
2022-08-24T05:40:51.979Z,99.90
2022-08-24T05:43:24.461Z,99.90
2022-08-24T05:45:57.159Z,99.90
2022-08-24T05:48:30.006Z,99.90
2022-08-24T05:51:03.203Z,99.90
2022-08-24T05:53:36.643Z,99.90
2022-08-24T05:56:13.432Z,99.90
2022-08-24T05:58:47.689Z,99.90
2022-08-24T06:01:23.442Z,99.90
2022-08-24T06:03:58.051Z,99.90
2022-08-24T06:06:31.693Z,99.90
2022-08-24T06:09:04.295Z,99.90
2022-08-24T06:11:39.503Z,99.90
2022-08-24T06:14:15.284Z,99.90
2022-08-24T06:16:49.027Z,99.90
2022-08-24T06:19:21.416Z,99.90
2022-08-24T06:21:54.933Z,99.90
2022-08-24T06:24:46.193Z,99.90
2022-08-24T06:27:38.009Z,99.90
2022-08-24T06:30:12.540Z,99.90
2022-08-24T06:32:45.193Z,99.90
2022-08-24T06:35:17.329Z,99.90
2022-08-24T06:37:49.502Z,99.90
2022-08-24T06:40:22.145Z,99.90
2022-08-24T06:42:55.434Z,99.10
2022-08-24T06:45:32.831Z,98.00
2022-08-24T06:48:05.006Z,96.50
2022-08-24T06:50:37.123Z,93.60
2022-08-24T06:53:14.637Z,92.70
2022-08-24T06:55:56.945Z,91.40
2022-08-24T06:58:29.482Z,90.00
2022-08-24T07:01:18.394Z,84.90
2022-08-24T07:03:53.560Z,85.00
2022-08-24T07:06:25.749Z,79.30
2022-08-24T07:08:58.031Z,77.50
2022-08-24T07:11:30.392Z,75.80
2022-08-24T07:14:04.912Z,72.70
2022-08-24T07:16:37.795Z,74.30
2022-08-24T07:19:09.875Z,72.20
2022-08-24T07:21:42.685Z,71.50
2022-08-24T07:24:14.895Z,71.40
2022-08-24T07:26:47.003Z,71.10
2022-08-24T07:29:44.118Z,69.50
2022-08-24T07:32:12.349Z,65.70
2022-08-24T07:34:44.597Z,63.80
2022-08-24T07:37:17.210Z,63.90
2022-08-24T07:39:49.299Z,65.90
2022-08-24T07:42:29.732Z,65.60
2022-08-24T07:45:04.253Z,63.60
2022-08-24T07:47:50.848Z,62.50
2022-08-24T07:50:29.944Z,61.30
2022-08-24T07:53:02.283Z,60.80
2022-08-24T07:55:34.616Z,59.90
2022-08-24T07:58:26.275Z,60.50
2022-08-24T08:00:59.511Z,58.60
2022-08-24T08:03:34.122Z,58.70
2022-08-24T08:06:12.555Z,57.60
2022-08-24T08:08:49.280Z,58.80
2022-08-24T08:11:21.718Z,58.30
2022-08-24T08:13:54.423Z,58.70
2022-08-24T08:16:27.563Z,58.60
2022-08-24T08:19:09.384Z,57.60
2022-08-24T08:22:06.688Z,57.80
2022-08-24T08:24:58.499Z,59.00
2022-08-24T08:27:31.034Z,57.40
2022-08-24T08:30:06.351Z,57.00
2022-08-24T08:32:39.422Z,54.90
2022-08-24T08:35:11.904Z,56.00
2022-08-24T08:37:44.576Z,56.90
2022-08-24T08:40:28.798Z,54.70
2022-08-24T08:43:24.580Z,55.60
2022-08-24T08:46:17.595Z,55.00
2022-08-24T08:49:31.011Z,53.40
2022-08-24T08:52:33.627Z,54.70
2022-08-24T08:55:53.458Z,54.30
2022-08-24T08:59:12.184Z,53.60
2022-08-24T09:02:38.922Z,56.80
2022-08-24T09:06:02.405Z,57.00
2022-08-24T09:09:06.685Z,56.70
2022-08-24T09:12:27.256Z,56.70
2022-08-24T09:15:34.067Z,56.70
2022-08-24T09:18:48.082Z,57.20
2022-08-24T09:22:00.219Z,56.90
2022-08-24T09:24:52.613Z,56.70
2022-08-24T09:27:42.178Z,57.90
2022-08-24T09:31:09.712Z,58.00
2022-08-24T09:34:10.422Z,57.40
2022-08-24T09:37:29.018Z,57.10
2022-08-24T09:40:33.393Z,56.60
2022-08-24T09:43:48.929Z,56.00
2022-08-24T09:47:00.641Z,58.30
2022-08-24T09:50:07.794Z,58.00
2022-08-24T09:53:14.833Z,55.40
2022-08-24T09:56:12.548Z,56.60
2022-08-24T09:59:18.584Z,57.80
2022-08-24T10:02:48.478Z,57.60
2022-08-24T10:05:46.601Z,56.90
2022-08-24T10:08:40.398Z,56.70
2022-08-24T10:12:06.103Z,56.80
2022-08-24T10:15:26.494Z,57.90
2022-08-24T10:18:05.811Z,57.50
2022-08-24T10:21:29.261Z,56.60
2022-08-24T10:24:57.405Z,56.90
2022-08-24T10:27:44.209Z,58.40
2022-08-24T10:31:01.544Z,57.40
2022-08-24T10:33:54.369Z,56.70
2022-08-24T10:37:17.229Z,55.40
2022-08-24T10:40:21.249Z,55.90
2022-08-24T10:43:43.013Z,55.30
2022-08-24T10:47:19.986Z,54.40
2022-08-24T10:50:39.368Z,54.40
2022-08-24T10:53:29.147Z,54.90
2022-08-24T10:56:11.889Z,55.30
2022-08-24T10:58:59.614Z,52.60
2022-08-24T11:02:05.011Z,53.40
2022-08-24T11:05:10.735Z,52.20
2022-08-24T11:08:18.199Z,51.20
2022-08-24T11:11:13.696Z,52.60
2022-08-24T11:14:09.671Z,52.20
2022-08-24T11:17:17.033Z,51.20
2022-08-24T11:19:52.493Z,50.90
2022-08-24T11:22:40.907Z,52.40
2022-08-24T11:25:33.394Z,50.50
2022-08-24T11:28:24.320Z,51.00
2022-08-24T11:31:35.969Z,51.20
2022-08-24T11:34:16.496Z,50.30
2022-08-24T11:37:02.366Z,50.80
2022-08-24T11:39:37.460Z,49.10
2022-08-24T11:42:09.892Z,49.30
2022-08-24T11:45:07.572Z,48.70
2022-08-24T11:48:27.983Z,49.70
2022-08-24T11:52:00.240Z,49.40
2022-08-24T11:55:24.589Z,48.80
2022-08-24T11:58:17.250Z,49.80
2022-08-24T12:01:29.829Z,48.80
2022-08-24T12:04:23.389Z,48.00
2022-08-24T12:07:20.726Z,47.80
2022-08-24T12:10:10.439Z,47.80
2022-08-24T12:13:27.253Z,49.20
2022-08-24T12:16:40.122Z,48.90
2022-08-24T12:19:36.254Z,48.60
2022-08-24T12:22:15.902Z,48.60
2022-08-24T12:24:57.217Z,48.50
2022-08-24T12:27:35.363Z,49.10
2022-08-24T12:30:13.507Z,50.10
2022-08-24T12:32:53.931Z,48.90
2022-08-24T12:35:37.996Z,49.10
2022-08-24T12:38:17.503Z,47.90
2022-08-24T12:41:17.766Z,49.40
2022-08-24T12:44:16.670Z,49.70
2022-08-24T12:46:54.331Z,50.10
2022-08-24T12:49:56.087Z,47.70
2022-08-24T12:53:02.079Z,46.70
2022-08-24T12:56:05.503Z,46.40
2022-08-24T12:59:12.462Z,46.60
2022-08-24T13:02:19.737Z,45.90
2022-08-24T13:05:31.259Z,46.50
2022-08-24T13:08:21.520Z,46.10
2022-08-24T13:11:33.300Z,45.90
2022-08-24T13:14:18.449Z,47.80
2022-08-24T13:16:56.366Z,45.60
2022-08-24T13:20:06.267Z,45.80
2022-08-24T13:23:11.999Z,46.40
2022-08-24T13:25:51.177Z,46.40
2022-08-24T13:28:37.787Z,46.90
2022-08-24T13:31:15.471Z,45.70
2022-08-24T13:34:06.639Z,46.30
2022-08-24T13:37:17.908Z,44.90
2022-08-24T13:40:28.228Z,44.40
2022-08-24T13:43:12.286Z,45.00
2022-08-24T13:46:01.122Z,45.10
2022-08-24T13:49:00.218Z,44.50
2022-08-24T13:52:10.168Z,45.40
2022-08-24T13:55:18.205Z,44.20
2022-08-24T13:58:43.382Z,45.60
2022-08-24T14:01:44.355Z,45.40
2022-08-24T14:04:58.026Z,45.40
2022-08-24T14:08:27.898Z,45.10
2022-08-24T14:11:35.005Z,44.40
2022-08-24T14:15:05.209Z,45.70
2022-08-24T14:17:56.935Z,45.40
2022-08-24T14:21:05.631Z,45.80
2022-08-24T14:23:52.089Z,44.40
2022-08-24T14:26:40.166Z,44.00
2022-08-24T14:29:53.975Z,44.80
2022-08-24T14:32:58.198Z,44.60
2022-08-24T14:35:53.719Z,44.70
2022-08-24T14:38:56.428Z,43.90
2022-08-24T14:41:52.601Z,45.10
2022-08-24T14:44:47.395Z,45.30
2022-08-24T14:47:51.233Z,44.30
2022-08-24T14:51:08.129Z,46.00
2022-08-24T14:54:12.092Z,45.80
2022-08-24T14:57:26.925Z,45.20
2022-08-24T15:00:22.324Z,45.90
2022-08-24T15:03:33.927Z,45.90
2022-08-24T15:06:50.117Z,46.30
2022-08-24T15:09:35.436Z,47.20
2022-08-24T15:12:35.983Z,45.70
2022-08-24T15:15:42.850Z,46.50
2022-08-24T15:18:42.775Z,47.20
2022-08-24T15:21:41.773Z,48.30
2022-08-24T15:24:50.624Z,47.10
2022-08-24T15:27:52.563Z,47.90
2022-08-24T15:30:34.009Z,48.00
2022-08-24T15:33:18.463Z,48.70
2022-08-24T15:36:15.663Z,48.90
2022-08-24T15:38:49.382Z,49.10
2022-08-24T15:41:38.151Z,49.10
2022-08-24T15:44:21.396Z,49.90
2022-08-24T15:47:03.667Z,50.50
2022-08-24T15:50:01.509Z,51.00
2022-08-24T15:52:43.361Z,50.70
2022-08-24T15:55:31.838Z,51.30
2022-08-24T15:58:34.287Z,51.20
2022-08-24T16:01:29.860Z,51.90
2022-08-24T16:04:46.558Z,51.80
2022-08-24T16:07:25.789Z,53.00
2022-08-24T16:10:12.860Z,52.50
2022-08-24T16:12:48.004Z,52.80
2022-08-24T16:15:22.958Z,52.70
2022-08-24T16:18:17.038Z,53.60
2022-08-24T16:20:51.057Z,53.80
2022-08-24T16:23:25.216Z,53.90
2022-08-24T16:26:33.481Z,54.30
2022-08-24T16:29:37.600Z,55.00
2022-08-24T16:32:30.179Z,55.30
2022-08-24T16:35:25.324Z,55.60
2022-08-24T16:37:57.686Z,56.10
2022-08-24T16:40:33.190Z,55.60
2022-08-24T16:43:07.326Z,55.60
2022-08-24T16:45:41.036Z,55.60
2022-08-24T16:48:13.879Z,55.40
2022-08-24T16:50:50.609Z,56.50
2022-08-24T16:53:24.479Z,56.70
2022-08-24T16:55:58.206Z,57.10
2022-08-24T16:58:33.545Z,56.80
2022-08-24T17:01:06.401Z,57.10
2022-08-24T17:03:38.444Z,57.60
2022-08-24T17:06:12.511Z,57.60
2022-08-24T17:08:48.364Z,58.20
2022-08-24T17:11:20.660Z,58.60
2022-08-24T17:13:52.907Z,58.60
2022-08-24T17:16:25.075Z,58.80
2022-08-24T17:18:58.881Z,58.70
2022-08-24T17:21:34.367Z,59.50
2022-08-24T17:24:10.398Z,59.30
2022-08-24T17:26:44.984Z,59.30
2022-08-24T17:29:36.293Z,59.60
2022-08-24T17:32:08.587Z,59.40
2022-08-24T17:34:41.668Z,60.60
2022-08-24T17:37:14.166Z,60.70
2022-08-24T17:39:55.751Z,61.00
2022-08-24T17:45:23.101Z,61.60
2022-08-24T17:47:55.439Z,62.00
2022-08-24T17:50:28.717Z,62.20
2022-08-24T17:53:01.594Z,62.40
2022-08-24T17:55:34.886Z,62.90
2022-08-24T17:58:07.367Z,62.30
2022-08-24T18:00:40.203Z,62.60
2022-08-24T18:03:16.505Z,63.00
2022-08-24T18:05:49.319Z,62.90
2022-08-24T18:08:21.494Z,63.30
2022-08-24T18:10:54.064Z,63.90
2022-08-24T18:13:26.139Z,64.60
2022-08-24T18:15:58.894Z,64.60
2022-08-24T18:18:31.546Z,65.10
2022-08-24T18:21:04.054Z,65.10
2022-08-24T18:23:37.966Z,65.00
2022-08-24T18:26:21.825Z,65.80
2022-08-24T18:29:07.873Z,65.40
2022-08-24T18:31:44.895Z,65.10
2022-08-24T18:34:21.205Z,66.40
2022-08-24T18:36:53.892Z,66.50
2022-08-24T18:39:27.673Z,67.00
2022-08-24T18:42:03.188Z,67.50
2022-08-24T18:44:39.094Z,67.00
2022-08-24T18:47:11.706Z,67.40
2022-08-24T18:49:43.778Z,67.70
2022-08-24T18:52:19.516Z,67.00
2022-08-24T18:54:52.300Z,67.30
2022-08-24T18:57:24.842Z,67.10
2022-08-24T18:59:57.168Z,67.30
2022-08-24T19:02:35.343Z,68.10
2022-08-24T19:05:18.974Z,69.10
2022-08-24T19:07:54.749Z,68.50
2022-08-24T19:10:29.154Z,69.60
2022-08-24T19:13:18.225Z,69.20
2022-08-24T19:15:51.768Z,70.30
2022-08-24T19:18:23.973Z,69.20
2022-08-24T19:20:58.612Z,69.60
2022-08-24T19:23:36.056Z,69.70
2022-08-24T19:26:08.681Z,70.60
2022-08-24T19:28:41.391Z,70.80
2022-08-24T19:31:14.212Z,70.60
2022-08-24T19:33:49.737Z,70.00
2022-08-24T19:36:23.035Z,70.70
2022-08-24T19:38:56.392Z,70.30
2022-08-24T19:41:36.954Z,70.20
2022-08-24T19:44:31.581Z,70.80
2022-08-24T19:47:24.388Z,72.00
2022-08-24T19:49:56.651Z,71.20
2022-08-24T19:52:32.136Z,72.10
2022-08-24T19:55:07.426Z,71.30
2022-08-24T19:57:54.639Z,72.10
2022-08-24T20:00:48.296Z,71.70
2022-08-24T20:03:41.989Z,72.40
2022-08-24T20:06:15.602Z,72.20
2022-08-24T20:08:50.004Z,72.10
2022-08-24T20:11:25.497Z,73.10
2022-08-24T20:13:58.496Z,73.80
2022-08-24T20:16:42.254Z,73.60
2022-08-24T20:19:14.684Z,74.40
2022-08-24T20:21:47.988Z,76.30
2022-08-24T20:24:20.660Z,76.30
2022-08-24T20:26:53.185Z,76.70
2022-08-24T20:29:25.790Z,77.00
2022-08-24T20:32:02.492Z,77.80
2022-08-24T20:34:36.561Z,77.50
2022-08-24T20:37:09.810Z,78.20
2022-08-24T20:39:46.749Z,77.80
2022-08-24T20:42:21.395Z,78.10
2022-08-24T20:44:55.834Z,78.80
2022-08-24T20:47:29.037Z,78.50
2022-08-24T20:50:01.371Z,79.40
2022-08-24T20:52:33.991Z,79.00
2022-08-24T20:55:07.515Z,79.70
2022-08-24T20:57:49.164Z,77.70
2022-08-24T21:00:24.503Z,78.50
2022-08-24T21:02:58.200Z,79.20
2022-08-24T21:05:30.451Z,80.10
2022-08-24T21:08:03.344Z,80.30
2022-08-24T21:10:36.624Z,79.70
2022-08-24T21:13:09.358Z,80.40
2022-08-24T21:15:41.890Z,80.20
2022-08-24T21:18:14.554Z,80.70
2022-08-24T21:21:03.354Z,80.90
2022-08-24T21:23:36.845Z,80.80
2022-08-24T21:26:14.181Z,81.40
2022-08-24T21:28:46.805Z,81.20
2022-08-24T21:31:20.321Z,81.50
2022-08-24T21:34:10.982Z,81.80
2022-08-24T21:37:03.113Z,82.60
2022-08-24T21:39:42.960Z,81.90
2022-08-24T21:42:17.446Z,81.90
2022-08-24T21:44:52.719Z,82.30
2022-08-24T21:47:24.863Z,82.20
2022-08-24T21:49:58.158Z,82.10
2022-08-24T21:52:30.312Z,81.60
2022-08-24T21:55:03.475Z,81.90
2022-08-24T21:57:36.108Z,82.30
2022-08-24T22:00:13.343Z,82.50
2022-08-24T22:02:48.700Z,82.40
2022-08-24T22:05:21.332Z,82.80
2022-08-24T22:07:53.481Z,82.80
2022-08-24T22:10:26.303Z,82.70
2022-08-24T22:13:03.356Z,83.00
2022-08-24T22:15:36.924Z,83.60
2022-08-24T22:18:09.218Z,84.40
2022-08-24T22:20:41.290Z,84.50
2022-08-24T22:23:13.398Z,85.10
2022-08-24T22:25:49.971Z,84.80
2022-08-24T22:28:24.462Z,86.40
2022-08-24T22:30:56.671Z,86.00
2022-08-24T22:33:29.122Z,85.10
2022-08-24T22:36:01.228Z,85.20
2022-08-24T22:38:33.756Z,85.70
2022-08-24T22:41:06.476Z,86.60
2022-08-24T22:43:57.485Z,86.20
2022-08-24T22:47:00.813Z,88.30
2022-08-24T22:49:40.272Z,88.90
2022-08-24T22:52:14.896Z,90.30
2022-08-24T22:54:47.900Z,90.20
2022-08-24T22:57:20.219Z,90.10
2022-08-24T22:59:52.348Z,90.10
2022-08-24T23:02:24.574Z,90.00
2022-08-24T23:04:57.380Z,90.10
2022-08-24T23:07:29.689Z,89.80
2022-08-24T23:10:05.987Z,90.20
2022-08-24T23:12:38.912Z,90.50
2022-08-24T23:15:11.468Z,90.80
2022-08-24T23:17:43.704Z,90.80
2022-08-24T23:20:16.070Z,91.10
2022-08-24T23:22:49.910Z,90.20
2022-08-24T23:25:22.026Z,90.60
2022-08-24T23:27:54.089Z,90.70
2022-08-24T23:30:26.269Z,91.30
2022-08-24T23:32:58.970Z,92.10
2022-08-24T23:35:31.439Z,91.40
2022-08-24T23:38:03.669Z,91.30
2022-08-24T23:40:41.209Z,92.40
2022-08-24T23:43:13.557Z,91.80
2022-08-24T23:45:45.628Z,91.60
2022-08-24T23:48:17.663Z,92.90
2022-08-24T23:50:49.838Z,92.50
2022-08-24T23:53:23.906Z,92.50
2022-08-24T23:56:07.679Z,92.90
2022-08-24T23:58:42.233Z,93.00
